Time;durP1;ratioP1;P1;durP2;ratioP2;P2;SDS_P1;SDS_P2;PMS_P1;PMS_P2;Temp;Humidity;BMP_temperature;BMP_pressure;BME280_temperature;BME280_humidity;BME280_pressure;Samples;Min_cycle;Max_cycle;Signal;HPM_P1;HPM_P2
2022/08/03 00:00:55;;;;;;;;;5.50;5.50;;;;;23.96;57.92;100697.06;5075836;27;45431;-72
2022/08/03 00:03:21;;;;;;;;;5.25;5.25;;;;;23.93;57.92;100702.72;5075899;27;45500;-74
2022/08/03 00:05:46;;;;;;;;;4.00;4.00;;;;;23.88;58.03;100713.06;5075742;27;46050;-71
2022/08/03 00:08:12;;;;;;;;;5.50;5.50;;;;;23.83;57.56;100707.28;5075163;27;45413;-71
2022/08/03 00:10:37;;;;;;;;;5.25;5.25;;;;;23.77;57.51;100704.19;5075507;28;45479;-72
2022/08/03 00:13:03;;;;;;;;;6.00;6.00;;;;;23.69;57.99;100700.53;5075577;27;45611;-72
2022/08/03 00:15:28;;;;;;;;;4.00;4.00;;;;;23.73;57.77;100707.28;5075509;27;45454;-70
2022/08/03 00:17:54;;;;;;;;;1.50;1.50;;;;;23.67;57.81;100699.81;5075528;27;45345;-71
2022/08/03 00:20:23;;;;;;;;;4.25;4.25;;;;;23.67;57.57;100708.75;5076400;27;45693;-71
2022/08/03 00:22:50;;;;;;;;;4.00;3.75;;;;;23.63;57.43;100707.34;5078614;27;45683;-71
2022/08/03 00:25:15;;;;;;;;;4.00;4.00;;;;;23.59;57.66;100713.97;5077444;27;47409;-71
2022/08/03 00:27:41;;;;;;;;;5.00;5.00;;;;;23.55;58.11;100715.25;5078908;27;45867;-71
2022/08/03 00:30:07;;;;;;;;;5.00;5.00;;;;;23.44;57.78;100700.13;5079498;27;45475;-72
2022/08/03 00:32:32;;;;;;;;;2.25;2.25;;;;;23.41;57.51;100703.13;5080214;27;45535;-71
2022/08/03 00:34:57;;;;;;;;;2.75;2.75;;;;;23.34;57.58;100700.16;5079254;27;46559;-71
2022/08/03 00:37:23;;;;;;;;;4.25;4.25;;;;;23.30;57.50;100710.31;5078212;27;45424;-70
2022/08/03 00:39:48;;;;;;;;;4.50;4.50;;;;;23.27;57.73;100712.44;5078022;27;46218;-71
2022/08/03 00:42:14;;;;;;;;;4.00;4.00;;;;;23.27;57.62;100707.94;5077503;27;45400;-73
2022/08/03 00:44:41;;;;;;;;;6.75;6.75;;;;;23.20;57.95;100696.88;5078906;27;45382;-71
2022/08/03 00:47:07;;;;;;;;;8.00;8.00;;;;;23.20;57.83;100707.59;5078404;28;45271;-71
2022/08/03 00:49:32;;;;;;;;;6.00;6.00;;;;;23.19;58.12;100700.53;5078593;27;45278;-70
2022/08/03 00:51:59;;;;;;;;;5.50;5.50;;;;;23.20;58.20;100702.22;5078607;27;45510;-72
2022/08/03 00:54:25;;;;;;;;;6.25;6.25;;;;;23.15;58.28;100703.66;5078515;27;46264;-71
2022/08/03 00:56:50;;;;;;;;;8.25;8.25;;;;;23.14;57.86;100699.28;5078191;27;45153;-72
2022/08/03 00:59:17;;;;;;;;;5.25;5.00;;;;;23.10;58.72;100695.19;5078196;27;45465;-71
2022/08/03 01:01:42;;;;;;;;;5.75;5.75;;;;;23.00;58.27;100684.44;5078513;27;45309;-71
2022/08/03 01:04:08;;;;;;;;;4.00;4.00;;;;;22.95;58.57;100682.19;5078127;27;46562;-71
2022/08/03 01:06:44;;;;;;;;;4.00;4.00;;;;;22.98;58.55;100691.78;5078333;27;45414;-70
2022/08/03 01:09:31;;;;;;;;;4.50;4.50;;;;;22.97;58.78;100692.78;5078164;27;45563;-69
2022/08/03 01:12:13;;;;;;;;;3.00;3.00;;;;;22.93;58.81;100683.31;5078063;27;45303;-72
2022/08/03 01:14:57;;;;;;;;;4.00;4.00;;;;;22.90;58.98;100690.66;5077574;27;46030;-69
2022/08/03 01:17:56;;;;;;;;;4.00;4.00;;;;;22.90;58.87;100685.28;5078093;27;45432;-71
2022/08/03 01:20:23;;;;;;;;;4.00;4.00;;;;;22.87;59.29;100688.25;5077663;27;45443;-71
2022/08/03 01:22:52;;;;;;;;;4.00;4.00;;;;;22.87;59.11;100684.75;5077978;27;45351;-72
2022/08/03 01:25:23;;;;;;;;;4.25;4.25;;;;;22.84;59.45;100683.16;5077414;27;45478;-71
2022/08/03 01:28:06;;;;;;;;;2.25;2.25;;;;;22.80;59.25;100675.53;5075768;28;45361;-70
2022/08/03 01:30:36;;;;;;;;;2.50;2.50;;;;;22.79;59.35;100673.84;5077688;27;45342;-71
2022/08/03 01:33:11;;;;;;;;;3.00;3.00;;;;;22.75;59.40;100679.47;5076722;27;45314;-71
2022/08/03 01:35:58;;;;;;;;;3.25;3.25;;;;;22.70;59.69;100667.47;5078057;27;45662;-70
2022/08/03 01:38:28;;;;;;;;;3.75;3.75;;;;;22.67;59.94;100671.28;5078248;27;45306;-71
2022/08/03 01:40:55;;;;;;;;;5.00;5.00;;;;;22.65;59.75;100667.88;5077859;28;45378;-71
2022/08/03 01:43:28;;;;;;;;;5.00;5.00;;;;;22.65;60.04;100667.06;5076623;27;45288;-71
2022/08/03 01:45:56;;;;;;;;;3.50;3.50;;;;;22.56;60.04;100664.22;5077445;27;45441;-71
2022/08/03 01:48:22;;;;;;;;;5.50;5.50;;;;;22.55;59.95;100664.34;5077389;27;45346;-71
2022/08/03 01:50:48;;;;;;;;;5.25;5.25;;;;;22.51;60.05;100663.78;5077629;27;45362;-70
2022/08/03 01:53:15;;;;;;;;;4.75;4.75;;;;;22.46;60.18;100660.69;5077566;27;45483;-71
2022/08/03 01:55:43;;;;;;;;;5.00;5.00;;;;;22.42;60.48;100654.69;5076108;27;47117;-71
2022/08/03 01:58:11;;;;;;;;;5.25;5.25;;;;;22.44;60.11;100667.97;5076925;28;45406;-71
2022/08/03 02:00:37;;;;;;;;;6.00;6.00;;;;;22.44;59.98;100667.97;5078267;27;45366;-71
2022/08/03 02:03:08;;;;;;;;;5.50;5.50;;;;;22.47;59.88;100665.06;5077879;27;45316;-71
2022/08/03 02:05:35;;;;;;;;;5.00;5.00;;;;;22.50;60.04;100664.78;5075887;28;48437;-71
2022/08/03 02:08:03;;;;;;;;;3.75;3.75;;;;;22.49;59.91;100660.41;5076772;27;45294;-71
2022/08/03 02:10:31;;;;;;;;;4.75;4.75;;;;;22.45;60.01;100656.31;5058738;28;45357;-71
2022/08/03 02:13:00;;;;;;;;;2.25;2.25;;;;;22.45;59.90;100654.44;5076940;27;45513;-71
2022/08/03 02:15:27;;;;;;;;;4.50;4.50;;;;;22.45;59.63;100654.44;5077246;27;46282;-72
2022/08/03 02:17:54;;;;;;;;;5.00;5.00;;;;;22.47;59.83;100657.00;5077436;27;45421;-73
2022/08/03 02:20:20;;;;;;;;;5.00;5.00;;;;;22.46;59.83;100649.97;5077524;27;45323;-73
2022/08/03 02:22:46;;;;;;;;;3.00;3.00;;;;;22.49;59.17;100648.81;5077693;27;45536;-72
2022/08/03 02:25:14;;;;;;;;;3.75;3.75;;;;;22.46;59.61;100647.28;5079590;27;46450;-73
2022/08/03 02:27:47;;;;;;;;;4.00;4.00;;;;;22.40;59.57;100637.06;5087224;27;45206;-73
2022/08/03 02:30:15;;;;;;;;;4.00;4.00;;;;;22.41;59.24;100646.81;5094666;27;45264;-73
2022/08/03 02:32:47;;;;;;;;;3.25;3.25;;;;;22.38;59.79;100639.03;5078572;27;45248;-75
2022/08/03 02:35:16;;;;;;;;;4.25;3.50;;;;;22.31;59.74;100630.69;5076056;28;47171;-72
2022/08/03 02:37:45;;;;;;;;;2.75;2.75;;;;;22.32;59.77;100646.66;5076723;27;45350;-74
2022/08/03 02:40:13;;;;;;;;;1.00;1.00;;;;;22.30;59.77;100642.41;5076869;27;45310;-73
2022/08/03 02:42:41;;;;;;;;;2.25;2.25;;;;;22.28;59.83;100645.22;5077078;27;45457;-72
2022/08/03 02:45:12;;;;;;;;;2.50;2.50;;;;;22.28;59.52;100636.34;5076494;27;46447;-74
2022/08/03 02:47:40;;;;;;;;;2.00;2.00;;;;;22.24;59.78;100641.09;5076554;27;45279;-74
2022/08/03 02:50:09;;;;;;;;;1.75;1.75;;;;;22.23;59.90;100628.69;5076833;27;45325;-74
2022/08/03 02:52:36;;;;;;;;;1.75;1.75;;;;;22.21;60.13;100638.69;5077298;27;45571;-73
2022/08/03 02:55:03;;;;;;;;;1.75;1.75;;;;;22.16;60.05;100633.75;5076647;27;45368;-73
2022/08/03 02:57:30;;;;;;;;;3.00;3.00;;;;;22.18;60.04;100636.28;5075271;27;45311;-73
2022/08/03 02:59:58;;;;;;;;;2.75;2.75;;;;;22.14;59.96;100635.72;5076971;28;45345;-72
2022/08/03 03:02:24;;;;;;;;;2.50;2.50;;;;;22.13;59.81;100630.50;5076940;27;45465;-73
2022/08/03 03:04:52;;;;;;;;;2.25;2.25;;;;;22.11;60.00;100627.97;5076226;27;45281;-72
2022/08/03 03:07:17;;;;;;;;;1.00;1.00;;;;;22.07;59.96;100621.19;5076298;27;45473;-73
2022/08/03 03:09:44;;;;;;;;;1.50;1.50;;;;;22.11;60.05;100617.25;5076583;27;45291;-72
2022/08/03 03:12:11;;;;;;;;;3.00;2.75;;;;;22.12;59.99;100628.78;5077404;28;45306;-73
2022/08/03 03:14:38;;;;;;;;;1.75;1.75;;;;;22.09;60.03;100623.72;5074654;27;47905;-72
2022/08/03 03:17:06;;;;;;;;;1.25;1.25;;;;;22.09;60.13;100627.25;5076045;27;45415;-72
2022/08/03 03:19:33;;;;;;;;;2.00;2.00;;;;;22.07;59.95;100628.34;5076146;28;45357;-72
2022/08/03 03:22:03;;;;;;;;;1.50;1.50;;;;;22.06;60.44;100632.03;5076691;27;45164;-72
2022/08/03 03:24:29;;;;;;;;;1.50;1.50;;;;;22.01;60.24;100619.88;5076528;28;46291;-72
2022/08/03 03:26:55;;;;;;;;;1.50;1.50;;;;;21.99;60.26;100623.69;5076691;27;45452;-73
2022/08/03 03:29:21;;;;;;;;;1.75;1.75;;;;;21.91;60.22;100616.31;5076549;27;45235;-73
2022/08/03 03:31:47;;;;;;;;;2.25;2.25;;;;;21.97;60.28;100629.16;5076450;27;45594;-74
2022/08/03 03:34:13;;;;;;;;;2.25;2.25;;;;;21.94;60.29;100618.72;5075681;27;46879;-75
2022/08/03 03:36:39;;;;;;;;;3.00;3.00;;;;;21.97;60.19;100631.00;5075904;27;45231;-74
2022/08/03 03:39:05;;;;;;;;;2.25;2.25;;;;;21.87;60.50;100610.41;5075871;27;45307;-74
2022/08/03 03:41:30;;;;;;;;;3.25;3.25;;;;;21.95;60.43;100635.66;5076174;27;45533;-72
2022/08/03 03:43:56;;;;;;;;;2.00;2.00;;;;;21.89;60.48;100616.47;5076167;27;45385;-74
2022/08/03 03:46:21;;;;;;;;;3.00;3.00;;;;;21.92;60.73;100625.22;5075900;27;45310;-76
2022/08/03 03:48:47;;;;;;;;;2.00;2.00;;;;;21.92;60.63;100619.88;5075688;28;45252;-75
2022/08/03 03:51:12;;;;;;;;;1.75;1.75;;;;;21.89;60.68;100618.28;5076090;27;45346;-72
2022/08/03 03:53:38;;;;;;;;;2.25;2.25;;;;;21.88;60.38;100619.28;5075612;27;46197;-74
2022/08/03 03:56:03;;;;;;;;;2.00;2.00;;;;;21.81;60.69;100610.94;5077302;27;45415;-74
2022/08/03 03:58:31;;;;;;;;;2.25;2.25;;;;;21.83;60.73;100613.47;5080268;28;45332;-74
2022/08/03 04:00:56;;;;;;;;;2.00;2.00;;;;;21.86;60.63;100618.56;5081732;27;45410;-72
2022/08/03 04:03:21;;;;;;;;;2.00;2.00;;;;;21.83;60.53;100614.34;5081327;27;45231;-73
2022/08/03 04:11:27;;;;;;;;;3.00;3.00;;;;;21.84;60.61;100616.03;5079477;27;45523;-74
2022/08/03 04:14:16;;;;;;;;;3.00;3.00;;;;;21.85;60.63;100617.72;5077548;28;48663;-75
2022/08/03 04:16:47;;;;;;;;;3.75;3.75;;;;;21.82;60.88;100620.69;5077690;27;45545;-76
2022/08/03 04:19:18;;;;;;;;;2.00;2.00;;;;;21.82;60.75;100614.44;5079762;27;45455;-75
2022/08/03 04:21:48;;;;;;;;;3.00;3.00;;;;;21.87;60.90;100628.28;5079502;27;45338;-72
2022/08/03 04:24:14;;;;;;;;;2.25;2.25;;;;;21.85;60.67;100616.88;5078477;27;45483;-72
2022/08/03 04:26:42;;;;;;;;;1.25;1.25;;;;;21.87;60.87;100623.78;5077297;28;45494;-72
2022/08/03 04:29:10;;;;;;;;;2.00;2.00;;;;;21.93;61.14;100621.56;5078746;28;45356;-72
2022/08/03 04:31:38;;;;;;;;;2.00;2.00;;;;;21.93;60.61;100619.72;5078889;27;45372;-74
2022/08/03 04:34:03;;;;;;;;;2.00;2.00;;;;;21.93;60.82;100618.88;5078669;27;46240;-74
2022/08/03 04:36:32;;;;;;;;;2.25;2.25;;;;;21.98;60.75;100616.66;5078834;27;45207;-73
2022/08/03 04:39:05;;;;;;;;;3.00;3.00;;;;;22.00;60.48;100620.88;5078876;27;45562;-73
2022/08/03 04:41:33;;;;;;;;;3.75;3.75;;;;;22.02;60.48;100618.06;5079140;27;45274;-74
2022/08/03 04:44:01;;;;;;;;;2.75;2.75;;;;;22.04;60.48;100621.47;5078819;27;46393;-72
2022/08/03 04:46:30;;;;;;;;;3.25;3.00;;;;;22.04;60.38;100618.78;5078399;27;45410;-75
2022/08/03 04:48:57;;;;;;;;;2.00;2.00;;;;;22.08;60.74;100622.88;5077254;28;45394;-74
2022/08/03 04:51:23;;;;;;;;;1.00;1.00;;;;;22.10;60.19;100614.69;5078694;27;45444;-73
2022/08/03 04:53:49;;;;;;;;;2.75;2.75;;;;;22.12;60.41;100616.25;5078403;27;46384;-73
2022/08/03 04:56:14;;;;;;;;;2.50;2.50;;;;;22.14;60.45;100616.97;5078468;27;45444;-75
2022/08/03 04:58:40;;;;;;;;;2.75;2.75;;;;;22.18;60.28;100620.22;5078472;27;45745;-76
2022/08/03 05:01:05;;;;;;;;;1.75;1.75;;;;;22.19;60.08;100624.59;5078450;27;45517;-73
2022/08/03 05:03:31;;;;;;;;;2.00;2.00;;;;;22.21;60.20;100624.47;5078685;27;46196;-74
2022/08/03 05:05:56;;;;;;;;;3.00;3.00;;;;;22.22;60.38;100627.00;5078260;27;45321;-74
2022/08/03 05:08:22;;;;;;;;;3.00;3.00;;;;;22.24;60.49;100629.56;5078268;28;45456;-74
2022/08/03 05:10:47;;;;;;;;;2.00;2.00;;;;;22.26;60.31;100633.78;5078979;27;45535;-74
2022/08/03 05:13:13;;;;;;;;;3.00;3.00;;;;;22.28;60.39;100630.97;5079417;27;45859;-75
2022/08/03 05:15:39;;;;;;;;;3.75;3.75;;;;;22.29;60.13;100625.50;5086694;27;45247;-73
2022/08/03 05:18:05;;;;;;;;;3.50;3.50;;;;;22.46;59.79;100628.50;5096732;27;45439;-73
2022/08/03 05:20:30;;;;;;;;;3.50;3.50;;;;;22.71;59.45;100626.28;5080761;27;45041;-74
2022/08/03 05:22:56;;;;;;;;;4.00;4.00;;;;;22.96;59.31;100618.66;5078673;27;46261;-74
2022/08/03 05:25:22;;;;;;;;;8.25;8.25;;;;;23.22;58.67;100628.78;5076544;27;45360;-74
2022/08/03 05:27:47;;;;;;;;;6.25;5.75;;;;;23.42;58.42;100629.66;5078036;27;45357;-72
2022/08/03 05:30:13;;;;;;;;;5.25;5.25;;;;;23.57;57.11;100641.63;5077988;27;45294;-73
2022/08/03 05:32:39;;;;;;;;;4.75;4.75;;;;;23.62;56.76;100633.16;5077554;27;46335;-73
2022/08/03 05:35:04;;;;;;;;;5.50;5.00;;;;;23.59;57.28;100623.53;5078110;27;45416;-74
2022/08/03 05:37:30;;;;;;;;;4.75;4.75;;;;;23.60;57.16;100632.44;5077837;27;45488;-72
2022/08/03 05:39:55;;;;;;;;;3.50;3.50;;;;;23.60;57.13;100632.44;5077921;27;45241;-72
2022/08/03 05:42:20;;;;;;;;;7.50;7.50;;;;;23.67;56.73;100633.56;5077582;27;45426;-72
2022/08/03 05:44:46;;;;;;;;;3.25;3.25;;;;;23.74;56.57;100637.34;5076231;27;45619;-74
2022/08/03 05:47:11;;;;;;;;;3.75;3.75;;;;;23.78;56.81;100638.75;5077459;27;45353;-73
2022/08/03 05:49:37;;;;;;;;;4.75;4.75;;;;;23.82;56.81;100639.28;5077708;27;45317;-72
2022/08/03 05:52:02;;;;;;;;;7.25;7.25;;;;;23.84;56.16;100639.97;5077693;27;45748;-75
2022/08/03 05:54:28;;;;;;;;;5.75;5.75;;;;;23.84;56.28;100639.97;5077389;27;45181;-74
2022/08/03 05:56:53;;;;;;;;;8.75;8.75;;;;;23.78;56.23;100630.69;5077820;27;45220;-76
2022/08/03 05:59:19;;;;;;;;;8.25;8.25;;;;;23.80;56.09;100643.13;5077996;27;45300;-74
2022/08/03 06:01:44;;;;;;;;;6.50;6.50;;;;;23.76;56.58;100632.66;5079693;27;46474;-73
2022/08/03 06:04:09;;;;;;;;;5.75;5.75;;;;;23.70;56.41;100629.72;5083824;27;45243;-74
2022/08/03 06:06:35;;;;;;;;;5.00;5.00;;;;;23.74;56.41;100641.84;5082754;27;45369;-74
2022/08/03 06:09:00;;;;;;;;;4.00;4.00;;;;;23.69;55.91;100647.69;5078900;27;45364;-74
2022/08/03 06:11:25;;;;;;;;;4.00;4.00;;;;;23.70;55.77;100651.19;5077938;27;46255;-76
2022/08/03 06:13:51;;;;;;;;;3.50;3.50;;;;;23.70;55.85;100652.06;5075664;27;45370;-73
2022/08/03 06:16:16;;;;;;;;;4.75;4.75;;;;;23.69;56.13;100654.88;5077041;28;45422;-80
2022/08/03 06:18:41;;;;;;;;;4.50;4.50;;;;;23.70;56.34;100654.75;5077250;27;45593;-74
2022/08/03 06:21:08;;;;;;;;;5.50;5.50;;;;;23.74;56.34;100661.50;5075686;27;46381;-74
2022/08/03 06:23:34;;;;;;;;;5.00;5.00;;;;;23.78;55.56;100656.69;5075606;27;45484;-72
2022/08/03 06:26:00;;;;;;;;;4.00;4.00;;;;;23.81;55.36;100656.38;5076515;27;45331;-74
2022/08/03 06:28:25;;;;;;;;;7.25;7.25;;;;;23.85;56.01;100651.56;5076891;27;45298;-72
2022/08/03 06:30:51;;;;;;;;;4.50;4.50;;;;;23.88;55.59;100648.59;5076287;27;46377;-72
2022/08/03 06:33:16;;;;;;;;;9.25;9.25;;;;;23.95;55.39;100648.88;5076231;27;45454;-73
2022/08/03 06:35:42;;;;;;;;;5.25;5.25;;;;;23.98;54.61;100643.19;5074595;27;45801;-73
2022/08/03 06:38:07;;;;;;;;;6.00;6.00;;;;;24.04;54.68;100654.22;5086754;27;45507;-72
2022/08/03 06:40:38;;;;;;;;;6.75;6.75;;;;;24.12;55.16;100661.53;5076275;27;45385;-72
2022/08/03 06:43:05;;;;;;;;;6.50;6.50;;;;;24.15;54.44;100652.31;5056711;28;45329;-71
2022/08/03 06:45:31;;;;;;;;;6.00;6.00;;;;;24.21;54.35;100652.59;5056270;28;45342;-71
2022/08/03 06:48:09;;;;;;;;;4.75;4.75;;;;;24.26;54.14;100653.97;5063903;27;45595;-71
2022/08/03 06:50:38;;;;;;;;;4.00;4.00;;;;;24.30;53.35;100650.81;5063015;27;45593;-71
2022/08/03 06:53:04;;;;;;;;;4.00;4.00;;;;;24.40;53.54;100658.84;5068901;27;45539;-71
2022/08/03 06:55:31;;;;;;;;;5.00;5.00;;;;;24.45;53.65;100650.34;5075414;27;45365;-71
2022/08/03 06:57:56;;;;;;;;;5.00;5.00;;;;;24.53;53.17;100657.63;5076453;27;45518;-71
2022/08/03 07:00:22;;;;;;;;;5.75;4.75;;;;;24.61;52.91;100652.34;5075748;27;45936;-70
2022/08/03 07:02:48;;;;;;;;;5.75;5.50;;;;;24.68;52.62;100666.03;5068436;28;45321;-72
2022/08/03 07:05:14;;;;;;;;;5.00;5.00;;;;;24.76;52.64;100666.16;5074469;28;45459;-74
2022/08/03 07:07:40;;;;;;;;;5.50;5.50;;;;;24.84;52.57;100663.53;5069408;27;45467;-73
2022/08/03 07:10:06;;;;;;;;;5.25;5.25;;;;;24.91;52.38;100669.13;5075835;28;46131;-74
2022/08/03 07:12:33;;;;;;;;;6.00;6.00;;;;;24.98;52.38;100669.38;5075618;27;45413;-71
2022/08/03 07:15:00;;;;;;;;;12.75;12.00;;;;;25.08;52.46;100665.63;5074460;28;45394;-71
2022/08/03 07:17:26;;;;;;;;;3.25;3.25;;;;;25.17;51.70;100658.44;5074865;27;45481;-70
2022/08/03 07:19:51;;;;;;;;;6.25;6.25;;;;;25.26;51.12;100658.50;5073391;27;46289;-70
2022/08/03 07:22:17;;;;;;;;;5.00;5.00;;;;;25.33;51.32;100660.44;5075721;27;45322;-70
2022/08/03 07:24:42;;;;;;;;;6.75;6.75;;;;;25.44;51.01;100661.19;5075764;27;45271;-74
2022/08/03 07:27:08;;;;;;;;;3.50;3.50;;;;;25.52;50.92;100663.97;5076268;28;45503;-70
2022/08/03 07:29:35;;;;;;;;;5.75;5.75;;;;;25.62;50.94;100664.69;5075058;27;45376;-71
2022/08/03 07:32:01;;;;;;;;;4.50;4.50;;;;;25.68;50.86;100657.84;5075161;27;45210;-74
2022/08/03 07:34:26;;;;;;;;;5.00;5.00;;;;;25.76;51.00;100663.28;5075814;27;45397;-72
2022/08/03 07:36:52;;;;;;;;;5.50;5.50;;;;;25.85;50.25;100660.63;5075880;27;45389;-70
2022/08/03 07:39:17;;;;;;;;;5.00;5.00;;;;;25.92;50.40;100662.50;5075387;27;46449;-72
2022/08/03 07:41:42;;;;;;;;;5.50;5.50;;;;;26.02;50.53;100656.19;5075621;27;45325;-69
2022/08/03 07:44:08;;;;;;;;;5.00;4.25;;;;;26.10;50.05;100661.59;5076073;27;45429;-71
2022/08/03 07:46:33;;;;;;;;;4.50;4.50;;;;;26.17;49.52;100654.59;5075941;28;45618;-71
2022/08/03 07:48:58;;;;;;;;;5.00;5.00;;;;;26.27;49.17;100659.81;5075163;27;45600;-71
2022/08/03 07:51:24;;;;;;;;;7.25;7.25;;;;;26.35;48.75;100662.53;5075523;27;45480;-72
2022/08/03 07:53:49;;;;;;;;;6.50;6.50;;;;;26.42;49.02;100665.44;5075713;27;45362;-72
2022/08/03 07:56:15;;;;;;;;;8.00;8.00;;;;;26.52;48.88;100668.03;5076193;27;45558;-73
2022/08/03 07:58:41;;;;;;;;;7.75;7.75;;;;;26.64;48.66;100664.00;5074065;27;47612;-74
2022/08/03 08:01:06;;;;;;;;;6.75;6.75;;;;;26.75;48.01;100667.38;5075148;27;45289;-72
2022/08/03 08:03:31;;;;;;;;;5.00;5.00;;;;;26.84;48.22;100658.31;5082202;27;45347;-72
2022/08/03 08:05:57;;;;;;;;;7.25;7.25;;;;;26.95;47.92;100665.22;5085188;27;45642;-74
2022/08/03 08:08:22;;;;;;;;;6.00;6.00;;;;;27.04;47.57;100666.94;5078886;27;45348;-72
2022/08/03 08:10:48;;;;;;;;;5.50;5.50;;;;;27.14;47.08;100664.06;5075826;27;45251;-72
2022/08/03 08:13:13;;;;;;;;;4.75;4.75;;;;;27.25;46.97;100671.00;5075616;27;45559;-72
2022/08/03 08:15:38;;;;;;;;;5.00;5.00;;;;;27.34;46.70;100661.00;5075583;27;45315;-71
2022/08/03 08:18:04;;;;;;;;;8.25;8.25;;;;;27.44;45.97;100663.53;5075267;27;45442;-71
2022/08/03 08:20:33;;;;;;;;;5.00;5.00;;;;;27.49;45.62;100653.94;5073685;28;45883;-72
2022/08/03 08:23:00;;;;;;;;;8.75;8.75;;;;;27.58;45.96;100662.06;5075007;27;45383;-72
2022/08/03 08:25:26;;;;;;;;;5.75;5.50;;;;;27.66;46.03;100656.63;5075058;27;45561;-73
2022/08/03 08:27:52;;;;;;;;;5.00;5.00;;;;;27.77;45.96;100661.66;5074917;27;45397;-73
2022/08/03 08:30:19;;;;;;;;;3.00;3.00;;;;;27.90;44.93;100660.28;5075299;27;45548;-72
2022/08/03 08:32:45;;;;;;;;;5.00;5.00;;;;;28.00;45.36;100656.31;5073733;27;45359;-72
2022/08/03 08:35:11;;;;;;;;;5.00;5.00;;;;;28.10;45.21;100656.13;5075429;27;45240;-72
2022/08/03 08:37:37;;;;;;;;;2.75;2.75;;;;;28.19;44.88;100656.97;5075466;27;46203;-73
2022/08/03 08:40:04;;;;;;;;;5.00;5.00;;;;;28.27;44.84;100653.38;5075208;27;45330;-71
2022/08/03 08:42:31;;;;;;;;;6.00;6.00;;;;;28.39;44.76;100656.53;5077198;27;45466;-76
2022/08/03 08:44:57;;;;;;;;;4.75;4.75;;;;;28.43;44.17;100647.88;5078268;28;45521;-73
2022/08/03 08:47:24;;;;;;;;;6.00;6.00;;;;;28.60;43.90;100655.06;5078021;27;45395;-72
2022/08/03 08:49:53;;;;;;;;;4.00;4.00;;;;;28.65;43.14;100648.09;5078239;27;45265;-74
2022/08/03 08:52:28;;;;;;;;;7.25;7.25;;;;;28.81;42.68;100652.56;5078270;27;45322;-72
2022/08/03 08:54:57;;;;;;;;;7.50;7.50;;;;;28.93;43.18;100649.44;5078314;27;45346;-74
2022/08/03 08:57:38;;;;;;;;;6.50;6.50;;;;;29.06;42.53;100657.78;5076445;27;46861;-74
2022/08/03 09:00:08;;;;;;;;;6.25;6.25;;;;;29.15;41.89;100650.44;5078322;27;45435;-73
2022/08/03 09:02:34;;;;;;;;;3.75;3.75;;;;;29.25;42.15;100648.31;5078318;27;45411;-72
2022/08/03 09:05:00;;;;;;;;;4.75;4.75;;;;;29.34;41.46;100637.41;5078305;27;45645;-71
2022/08/03 09:07:27;;;;;;;;;5.25;5.25;;;;;29.46;41.74;100654.09;5077870;27;46386;-71
2022/08/03 09:10:02;;;;;;;;;4.75;4.75;;;;;29.53;41.37;100641.50;5078335;27;45501;-71
2022/08/03 09:12:27;;;;;;;;;5.00;5.00;;;;;29.64;40.75;100640.19;5078024;28;45349;-72
2022/08/03 09:14:54;;;;;;;;;4.75;4.75;;;;;29.76;40.75;100646.84;5077988;27;45400;-71
2022/08/03 09:17:19;;;;;;;;;6.50;6.50;;;;;29.80;39.92;100640.03;5077453;27;46750;-72
2022/08/03 09:20:06;;;;;;;;;4.00;4.00;;;;;29.93;39.82;100641.22;5077795;27;45410;-71
2022/08/03 09:22:32;;;;;;;;;5.25;5.25;;;;;30.00;39.35;100639.47;5077942;27;45318;-72
2022/08/03 09:25:10;;;;;;;;;4.25;4.25;;;;;30.10;39.34;100636.44;5077789;27;45585;-72
2022/08/03 09:27:43;;;;;;;;;5.00;5.00;;;;;30.21;38.82;100640.56;5077382;27;45533;-71
2022/08/03 09:30:17;;;;;;;;;5.25;5.25;;;;;30.29;38.56;100635.88;5077651;27;45318;-73
2022/08/03 09:32:44;;;;;;;;;4.75;4.75;;;;;30.38;38.25;100638.47;5078068;27;45414;-72
2022/08/03 09:35:13;;;;;;;;;4.50;4.50;;;;;30.42;38.60;100635.16;5078073;28;45254;-72
2022/08/03 09:37:39;;;;;;;;;5.00;5.00;;;;;30.54;38.42;100629.22;5077523;27;46400;-72
2022/08/03 09:40:05;;;;;;;;;4.75;4.75;;;;;30.62;38.04;100631.84;5076282;27;45436;-73
2022/08/03 09:42:33;;;;;;;;;5.75;5.25;;;;;30.69;37.41;100624.59;5077820;27;45341;-73
2022/08/03 09:44:59;;;;;;;;;4.00;4.00;;;;;30.78;37.54;100632.66;5077552;27;45377;-73
2022/08/03 09:47:33;;;;;;;;;3.50;3.50;;;;;30.88;37.67;100625.00;5077216;27;45435;-72
2022/08/03 09:50:02;;;;;;;;;4.75;4.75;;;;;30.96;37.23;100635.75;5077387;27;45510;-73
2022/08/03 09:52:39;;;;;;;;;3.50;3.50;;;;;31.07;37.29;100628.09;5077140;27;45408;-73
2022/08/03 09:55:10;;;;;;;;;3.00;3.00;;;;;31.15;36.39;100623.34;5077095;27;45509;-72
2022/08/03 09:57:36;;;;;;;;;4.25;4.25;;;;;31.17;36.23;100624.00;5076750;27;46250;-73
2022/08/03 10:00:13;;;;;;;;;2.50;2.50;;;;;31.21;36.43;100612.75;5077174;27;45880;-69
2022/08/03 10:02:41;;;;;;;;;4.00;4.00;;;;;31.27;36.31;100612.81;5077574;27;45336;-71
2022/08/03 10:05:08;;;;;;;;;2.75;2.75;;;;;31.33;36.22;100612.00;5077385;28;45477;-74
2022/08/03 10:07:49;;;;;;;;;4.50;4.50;;;;;31.46;35.92;100610.41;5077301;27;46367;-72
2022/08/03 10:10:16;;;;;;;;;4.25;4.25;;;;;31.56;35.10;100613.63;5076734;27;45356;-73
2022/08/03 10:12:43;;;;;;;;;3.50;3.50;;;;;31.66;35.31;100606.97;5077564;27;45412;-70
2022/08/03 10:15:09;;;;;;;;;3.25;3.25;;;;;31.74;35.69;100609.53;5077595;27;45266;-71
2022/08/03 10:17:35;;;;;;;;;4.75;4.75;;;;;31.75;35.25;100606.66;5076665;27;46111;-71
2022/08/03 10:20:02;;;;;;;;;4.00;4.00;;;;;31.75;35.35;100603.06;5076531;27;45357;-69
2022/08/03 10:22:33;;;;;;;;;5.50;5.50;;;;;31.80;35.28;100599.75;5076563;27;45350;-74
2022/08/03 10:25:07;;;;;;;;;4.25;4.25;;;;;31.89;35.32;100591.25;5076901;27;45279;-72
2022/08/03 10:27:40;;;;;;;;;2.50;2.50;;;;;32.00;34.79;100597.13;5075997;27;45397;-71
2022/08/03 10:30:08;;;;;;;;;2.25;2.25;;;;;32.08;34.74;100596.97;5076380;27;45395;-71
2022/08/03 10:32:41;;;;;;;;;4.50;4.50;;;;;32.20;34.55;100589.88;5076850;27;45314;-70
2022/08/03 10:35:18;;;;;;;;;4.75;4.75;;;;;32.28;33.79;100594.28;5077117;27;45325;-71
2022/08/03 10:37:51;;;;;;;;;3.75;3.75;;;;;32.28;34.68;100590.72;5077087;27;45262;-73
2022/08/03 10:40:21;;;;;;;;;4.25;4.25;;;;;32.31;34.10;100585.72;5077660;27;45382;-72
2022/08/03 10:42:49;;;;;;;;;5.00;5.00;;;;;32.39;33.85;100582.00;5077432;27;45402;-74
2022/08/03 10:45:22;;;;;;;;;3.75;3.75;;;;;32.46;33.89;100582.00;5077675;27;45437;-73
2022/08/03 10:47:50;;;;;;;;;6.75;6.75;;;;;32.55;33.63;100574.47;5078510;27;46452;-73
2022/08/03 10:50:17;;;;;;;;;5.00;5.00;;;;;32.64;33.48;100578.66;5081982;28;45412;-73
2022/08/03 10:53:06;;;;;;;;;4.75;4.75;;;;;32.67;33.47;100572.81;5083646;27;45263;-73
2022/08/03 10:58:37;;;;;;;;;2.00;2.00;;;;;32.70;32.74;100566.94;5076220;28;45315;-71
2022/08/03 11:01:03;;;;;;;;;3.25;3.25;;;;;32.77;33.49;100573.22;5076652;27;45248;-74
2022/08/03 11:03:29;;;;;;;;;6.50;6.50;;;;;32.84;32.73;100573.25;5076804;27;45479;-72
2022/08/03 11:06:17;;;;;;;;;2.75;2.75;;;;;32.95;32.78;100571.81;5075116;27;45572;-74
2022/08/03 11:08:47;;;;;;;;;3.00;3.00;;;;;33.01;32.86;100570.97;5076145;27;46340;-73
2022/08/03 11:11:15;;;;;;;;;3.25;3.25;;;;;33.08;32.94;100570.94;5076238;27;45450;-74
2022/08/03 11:13:55;;;;;;;;;6.00;6.00;;;;;33.09;32.25;100566.34;5075843;27;45302;-71
2022/08/03 11:16:22;;;;;;;;;4.00;4.00;;;;;33.06;31.92;100553.97;5076709;27;45349;-71
2022/08/03 11:18:58;;;;;;;;;3.75;3.75;;;;;33.15;31.94;100552.69;5075958;27;45514;-71
2022/08/03 11:21:50;;;;;;;;;4.25;4.25;;;;;33.19;31.95;100548.50;5076004;27;45500;-71
2022/08/03 11:24:46;;;;;;;;;4.50;4.50;;;;;33.27;31.58;100554.75;5075933;27;45299;-71
2022/08/03 11:27:21;;;;;;;;;5.50;5.50;;;;;33.33;31.81;100552.03;5076150;27;45164;-70
2022/08/03 11:30:05;;;;;;;;;5.50;5.50;;;;;33.42;31.90;100552.69;5074004;27;47490;-70
2022/08/03 11:32:36;;;;;;;;;14.50;14.50;;;;;33.48;31.54;100549.09;5075686;27;45254;-71
2022/08/03 11:35:13;;;;;;;;;8.50;8.50;;;;;33.52;31.15;100535.84;5075908;27;45306;-74
2022/08/03 11:37:56;;;;;;;;;2.00;2.00;;;;;33.63;30.95;100537.91;5075921;27;45508;-69